Meteo Giornale » Osservazioni meteo Repubblica Ceca » Caslav

ore: 23:00 - Osservazioni Meteo Caslav
Lat. 49° 56' N Lon. 15° 23' E Alt. 242 metri s.l.m.

sereno Europe/Prague

18 °C

Sereno

Temp. 24 Ore

9 °C

26 °C

Sud-Est

11.1 Km/h

Dew point 9 °C

Umidità 55 %

Visibilità  10 Km

Il sole sorge alle ore 06:44

Il sole tramonta alle ore 18:58

Data e Ora Cielo e Fenomeni T °C DP °C Um. % Pres. hPa Vis. km Vento km/h
Oggi h: 23:00 sereno Sereno 18 9 55 1010 10 SE 11.1
Oggi h: 22:30 sereno Sereno 19 10 55 1010 10 S/SE 13
Oggi h: 22:00 sereno Sereno 19 10 55 1010 10 S/SE 11.1
Oggi h: 21:30 sereno Sereno 19 11 59 1010 10 S/SE 7.4
Oggi h: 21:00 sereno Sereno 19 11 59 1010 10 E/SE 9.3
Oggi h: 20:30 sereno Sereno 20 11 56 1010 10 S/SE 11.1
Oggi h: 20:00 sereno Sereno 21 11 52 1010 10 SE 9.3
Oggi h: 19:30 sereno Sereno 21 11 52 1010 10 E/SE 11.1
Oggi h: 19:00 sereno Sereno 21 12 56 1010 10 E/SE 11.1
Oggi h: 18:30 sereno Sereno 24 12 47 1010 10 S/SE 14.8
Oggi h: 18:00 sereno Sereno 25 11 41 1011 10 S/SE 18.5
Oggi h: 17:30 sereno Sereno 25 11 41 1011 10 S/SE 16.7
Oggi h: 17:00 sereno Sereno 25 11 41 1011 10 SE 18.5
Oggi h: 16:30 sereno Sereno 26 11 39 1012 10 S/SE 24
Oggi h: 16:00 sereno Sereno 26 12 41 1012 10 S/SE 22.2
Oggi h: 15:30 sereno Sereno 26 12 41 1012 10 S/SE 24
Oggi h: 15:00 sereno Sereno 25 12 44 1012 10 S/SE 20.3
Oggi h: 14:30 sereno Sereno 25 12 44 1013 10 S/SE 18.5
Oggi h: 14:00 sereno Sereno 24 12 47 1013 10 S/SE 18.5
Oggi h: 13:30 sereno Sereno 24 12 47 1013 10 S/SE 20.3
Oggi h: 13:00 sereno Sereno 23 12 49 1014 10 S/SE 18.5
Oggi h: 12:30 sereno Sereno 23 11 46 1014 10 S/SE 14.8
Oggi h: 12:00 sereno Sereno 22 11 49 1014 10 SE 14.8
Oggi h: 11:30 sereno Sereno 21 11 52 1014 10 S/SE 14.8
Oggi h: 11:00 sereno Sereno 21 10 49 1014 10 S/SE 14.8
Oggi h: 10:30 sereno Sereno 20 10 52 1014 10 S/SE 16.7
Oggi h: 10:00 sereno Sereno 19 9 52 1014 10 S/SE 7.4
Oggi h: 09:30 sereno Sereno 18 8 51 1015 10 S/SE 7.4
Oggi h: 09:00 sereno Sereno 17 9 59 1015 10 SE 7.4
Oggi h: 08:30 sereno Sereno 15 9 67 1015 10 N 3.7
Oggi h: 08:00 sereno Sereno 14 9 71 1015 10 N 3.7
Oggi h: 07:30 sereno Sereno 13 8 71 1015 10 N 3.7
Oggi h: 07:00 sereno Sereno 13 8 71 1015 10 N 1.8
Oggi h: 06:30 sereno Sereno 11 8 81 1015 10 N 3.7
Oggi h: 06:00 sereno Sereno 11 8 81 1015 10 S/SE 7.4
Oggi h: 05:30 sereno Sereno 10 7 81 1015 10 N 3.7
Oggi h: 05:00 sereno Sereno 9 7 87 1015 10 N 3.7
Oggi h: 04:30 sereno Sereno 11 8 81 1015 10 N 3.7
Oggi h: 04:00 sereno Sereno 11 8 81 1015 10 N 0
Oggi h: 03:30 sereno Sereno 12 8 76 1015 10 N 1.8
Oggi h: 03:00 sereno Sereno 11 8 81 1015 10 N 3.7
Oggi h: 02:30 sereno Sereno 11 8 81 1015 10 N 5.5
Oggi h: 02:00 sereno Sereno 11 8 81 1015 10 N 5.5
Oggi h: 01:30 sereno Sereno 11 9 87 1016 10 N 1.8
Oggi h: 01:00 sereno Sereno 11 8 81 1016 10 N 3.7
Oggi h: 00:30 sereno Sereno 14 8 67 1016 10 N 1.8